Farmingdale, Illinois
Current Conditions -  °F | °C
As of 4:52 PM on Monday 22 Dec 2014 (Local Time) from KSPI Reporting Station
Light Rain Light Rain  
Wind Chill: 41°   Ceiling: 600
Heat Index: 46°   Visibility: 3mi
Dew Point: 46°   Wind: 10mph
Humidity: 100%   Direction: 140°SE
Pressure: 29.58"   Gusts: NA
Location:  39.8458°N, 89.8743°W
Report Text: KSPI 222252Z 14009KT 3SM -RA BR OVC006 08/08 A2958 RMK AO2 SLP018 P0003 T00780078
Loading
Personal Weather Stations






























Interactive Weather Map New forecast layout! Learn more

10-Day Weather Forecast

Advertisements
Track Severe Weather on mobile